createdAt,value
2023-02-05T00:00:19.779Z,101988.66
2023-02-05T00:02:47.033Z,101994.19
2023-02-05T00:05:13.501Z,101984.25
2023-02-05T00:07:40.276Z,101992.41
2023-02-05T00:10:07.078Z,101994.19
2023-02-05T00:12:33.601Z,101987.88
2023-02-05T00:15:00.153Z,101988.66
2023-02-05T00:17:26.692Z,101995.75
2023-02-05T00:19:53.201Z,101975.00
2023-02-05T00:22:19.659Z,101988.53
2023-02-05T00:24:46.190Z,101989.56
2023-02-05T00:27:12.702Z,101993.31
2023-02-05T00:29:39.163Z,101990.31
2023-02-05T00:32:05.859Z,101985.31
2023-02-05T00:34:32.402Z,101990.59
2023-02-05T00:36:58.959Z,101993.31
2023-02-05T00:39:25.425Z,101981.19
2023-02-05T00:41:51.906Z,101992.41
2023-02-05T00:44:18.428Z,101989.44
2023-02-05T00:46:44.927Z,101980.03
2023-02-05T00:49:11.494Z,101989.94
2023-02-05T00:51:37.997Z,101989.69
2023-02-05T00:54:04.625Z,101985.31
2023-02-05T00:56:31.144Z,101984.25
2023-02-05T00:58:57.796Z,101983.38
2023-02-05T01:01:25.104Z,101985.81
2023-02-05T01:03:51.652Z,101980.53
2023-02-05T01:06:18.249Z,101985.94
2023-02-05T01:08:44.856Z,101988.53
2023-02-05T01:11:11.482Z,101985.44
2023-02-05T01:13:39.355Z,101991.47
2023-02-05T01:16:06.179Z,101989.03
2023-02-05T01:18:32.760Z,102000.53
2023-02-05T01:20:59.416Z,101997.69
2023-02-05T01:23:26.052Z,101991.25
2023-02-05T01:25:52.671Z,101996.13
2023-02-05T01:28:19.299Z,102002.41
2023-02-05T01:30:50.704Z,102000.09
2023-02-05T01:33:18.363Z,102003.94
2023-02-05T01:35:45.315Z,102010.88
2023-02-05T01:38:13.058Z,102001.09
2023-02-05T01:40:40.431Z,102002.25
2023-02-05T01:43:12.881Z,101995.81
2023-02-05T01:46:00.899Z,102000.72
2023-02-05T01:48:36.799Z,102004.44
2023-02-05T01:51:08.336Z,102005.88
2023-02-05T01:53:37.226Z,102003.16
2023-02-05T01:56:08.825Z,102001.38
2023-02-05T01:58:40.421Z,102000.84
2023-02-05T02:01:07.123Z,102003.06
2023-02-05T02:03:33.654Z,101997.78
2023-02-05T02:06:00.256Z,101995.34
2023-02-05T02:08:27.066Z,101993.28
2023-02-05T02:10:57.068Z,102011.47
2023-02-05T02:13:27.186Z,101999.34
2023-02-05T02:15:54.380Z,101995.47
2023-02-05T02:18:27.809Z,101988.09
2023-02-05T02:21:13.090Z,101992.84
2023-02-05T02:24:11.052Z,101995.84
2023-02-05T02:27:05.546Z,102001.38
2023-02-05T02:29:39.817Z,102001.09
2023-02-05T02:32:12.450Z,101998.78
2023-02-05T02:34:49.191Z,102005.13
2023-02-05T02:37:25.031Z,102001.53
2023-02-05T02:39:56.413Z,101991.88
2023-02-05T02:42:34.455Z,101992.38
2023-02-05T02:45:04.661Z,101988.59
2023-02-05T02:47:35.622Z,101991.94
2023-02-05T02:50:13.205Z,101987.06
2023-02-05T02:52:42.460Z,101979.84
2023-02-05T02:55:12.617Z,101985.50
2023-02-05T02:57:41.657Z,101991.81
2023-02-05T03:00:22.571Z,101991.25
2023-02-05T03:02:52.106Z,101990.84
2023-02-05T03:05:22.017Z,101986.75
2023-02-05T03:07:54.454Z,101996.13
2023-02-05T03:10:32.278Z,102000.91
2023-02-05T03:12:58.877Z,102002.84
2023-02-05T03:15:25.684Z,101998.47
2023-02-05T03:17:54.782Z,102004.41
2023-02-05T03:20:26.908Z,102007.06
2023-02-05T03:22:54.838Z,102014.13
2023-02-05T03:25:23.139Z,102013.72
2023-02-05T03:27:53.125Z,102016.88
2023-02-05T03:30:21.247Z,102013.13
2023-02-05T03:32:56.858Z,102014.75
2023-02-05T03:35:36.876Z,102013.44
2023-02-05T03:38:31.557Z,102016.38
2023-02-05T03:41:08.131Z,102015.81
2023-02-05T03:43:58.349Z,102015.72
2023-02-05T03:46:43.773Z,102020.50
2023-02-05T03:49:28.164Z,102014.44
2023-02-05T03:52:04.892Z,102012.97
2023-02-05T03:54:46.628Z,102021.03
2023-02-05T03:57:39.278Z,102021.66
2023-02-05T04:00:06.699Z,102028.19
2023-02-05T04:02:34.300Z,102029.44
2023-02-05T04:05:00.861Z,102026.25
2023-02-05T04:07:27.439Z,102012.81
2023-02-05T04:09:53.979Z,102024.78
2023-02-05T04:12:20.518Z,102022.56
2023-02-05T04:14:47.092Z,102024.97
2023-02-05T04:17:13.737Z,102025.13
2023-02-05T04:19:41.551Z,102019.84
2023-02-05T04:22:08.078Z,102020.19
2023-02-05T04:24:34.552Z,102024.59
2023-02-05T04:27:01.017Z,102031.56
2023-02-05T04:29:27.654Z,102042.03
2023-02-05T04:31:54.183Z,102041.22
2023-02-05T04:34:20.739Z,102037.81
2023-02-05T04:36:47.257Z,102040.41
2023-02-05T04:39:13.772Z,102043.88
2023-02-05T04:41:40.240Z,102037.69
2023-02-05T04:44:06.951Z,102037.97
2023-02-05T04:46:33.587Z,102037.25
2023-02-05T04:49:01.228Z,102034.69
2023-02-05T04:51:27.776Z,102042.66
2023-02-05T04:53:54.323Z,102036.41
2023-02-05T04:56:20.784Z,102039.56
2023-02-05T04:58:47.262Z,102040.22
2023-02-05T05:01:19.629Z,102040.69
2023-02-05T05:03:46.748Z,102048.56
2023-02-05T05:06:14.478Z,102049.03
2023-02-05T05:08:41.317Z,102062.50
2023-02-05T05:11:12.845Z,102066.09
2023-02-05T05:13:40.195Z,102059.78
2023-02-05T05:16:08.131Z,102064.28
2023-02-05T05:18:35.201Z,102074.72
2023-02-05T05:21:03.005Z,102068.91
2023-02-05T05:23:30.190Z,102070.31
2023-02-05T05:25:56.684Z,102075.63
2023-02-05T05:28:23.292Z,102083.25
2023-02-05T05:30:49.920Z,102081.72
2023-02-05T05:33:16.557Z,102080.19
2023-02-05T05:35:43.212Z,102089.97
2023-02-05T05:38:09.736Z,102094.66
2023-02-05T05:40:55.024Z,102102.13
2023-02-05T05:43:40.110Z,102111.59
2023-02-05T05:46:07.686Z,102101.50
2023-02-05T05:48:34.894Z,102105.31
2023-02-05T05:51:01.526Z,102112.53
2023-02-05T05:53:28.388Z,102109.97
2023-02-05T05:55:54.897Z,102107.09
2023-02-05T05:58:21.418Z,102106.94
2023-02-05T06:00:47.906Z,102109.97
2023-02-05T06:03:14.435Z,102109.81
2023-02-05T06:05:40.928Z,102114.34
2023-02-05T06:08:07.627Z,102110.59
2023-02-05T06:10:34.262Z,102109.69
2023-02-05T06:13:01.050Z,102112.56
2023-02-05T06:15:27.546Z,102107.56
2023-02-05T06:17:54.156Z,102116.19
2023-02-05T06:20:20.813Z,102119.06
2023-02-05T06:22:47.336Z,102124.66
2023-02-05T06:25:13.854Z,102129.34
2023-02-05T06:27:40.358Z,102130.84
2023-02-05T06:30:07.297Z,102129.63
2023-02-05T06:32:33.795Z,102131.91
2023-02-05T06:35:00.319Z,102128.72
2023-02-05T06:37:46.150Z,102132.78
2023-02-05T06:40:15.828Z,102127.50
2023-02-05T06:42:42.772Z,102131.91
2023-02-05T06:45:10.375Z,102137.19
2023-02-05T06:47:37.817Z,102133.41
2023-02-05T06:50:06.131Z,102140.47
2023-02-05T06:52:32.687Z,102153.16
2023-02-05T06:54:59.186Z,102143.19
2023-02-05T06:57:25.806Z,102144.84
2023-02-05T06:59:52.281Z,102147.09
2023-02-05T07:02:18.901Z,102148.13
2023-02-05T07:04:45.885Z,102160.78
2023-02-05T07:07:12.508Z,102159.69
2023-02-05T07:09:38.982Z,102179.03
2023-02-05T07:12:05.935Z,102177.47
2023-02-05T07:14:32.429Z,102181.66
2023-02-05T07:16:58.926Z,102193.13
2023-02-05T07:19:25.489Z,102206.38
2023-02-05T07:21:51.948Z,102206.25
2023-02-05T07:24:18.427Z,102205.34
2023-02-05T07:26:45.366Z,102206.13
2023-02-05T07:29:11.856Z,102200.31
2023-02-05T07:31:38.504Z,102211.38
2023-02-05T07:34:05.085Z,102206.69
2023-02-05T07:36:31.609Z,102198.81
2023-02-05T07:38:58.160Z,102196.53
2023-02-05T07:41:26.847Z,102208.31
2023-02-05T07:43:54.571Z,102208.50
2023-02-05T07:46:22.315Z,102200.97
2023-02-05T07:48:49.120Z,102211.56
2023-02-05T07:51:22.090Z,102212.50
2023-02-05T07:53:48.886Z,102220.34
2023-02-05T07:56:16.189Z,102220.94
2023-02-05T07:58:42.787Z,102226.28
2023-02-05T08:01:09.780Z,102233.97
2023-02-05T08:03:36.442Z,102226.75
2023-02-05T08:06:07.499Z,102231.44
2023-02-05T08:08:34.712Z,102238.78
2023-02-05T08:11:03.928Z,102238.03
2023-02-05T08:13:30.731Z,102229.88
2023-02-05T08:15:57.887Z,102235.75
2023-02-05T08:18:24.495Z,102228.13
2023-02-05T08:20:54.844Z,102225.69
2023-02-05T08:23:22.228Z,102230.50
2023-02-05T08:25:48.842Z,102231.94
2023-02-05T08:28:15.455Z,102230.47
2023-02-05T08:30:42.043Z,102235.16
2023-02-05T08:33:08.599Z,102232.78
2023-02-05T08:35:35.430Z,102239.78
2023-02-05T08:38:02.245Z,102241.25
2023-02-05T08:40:29.104Z,102238.50
2023-02-05T08:42:57.806Z,102237.94
2023-02-05T08:45:24.808Z,102240.03
2023-02-05T08:47:51.403Z,102240.50
2023-02-05T08:50:18.735Z,102236.16
2023-02-05T08:52:45.492Z,102239.06
2023-02-05T08:55:12.422Z,102240.00
2023-02-05T08:57:39.412Z,102229.97
2023-02-05T09:00:06.476Z,102231.03
2023-02-05T09:02:32.961Z,102232.28
2023-02-05T09:05:08.356Z,102230.94
2023-02-05T09:07:36.195Z,102225.25
2023-02-05T09:10:02.709Z,102216.31
2023-02-05T09:12:29.245Z,102213.31
2023-02-05T09:14:55.755Z,102214.72
2023-02-05T09:17:22.242Z,102204.50
2023-02-05T09:19:48.748Z,102207.13
2023-02-05T09:22:15.256Z,102204.88
2023-02-05T09:24:41.755Z,102195.66
2023-02-05T09:27:08.302Z,102206.63
2023-02-05T09:29:34.819Z,102204.91
2023-02-05T09:32:01.301Z,102198.81
2023-02-05T09:34:27.841Z,102217.91
2023-02-05T09:36:54.383Z,102202.53
2023-02-05T09:39:44.332Z,102204.25
2023-02-05T09:42:36.051Z,102205.50
2023-02-05T09:45:14.938Z,102208.41
2023-02-05T09:48:03.235Z,102215.97
2023-02-05T09:50:30.745Z,102207.94
2023-02-05T09:53:02.757Z,102210.63
2023-02-05T09:55:32.765Z,102207.84
2023-02-05T09:58:03.098Z,102206.22
2023-02-05T10:00:39.307Z,102206.31
2023-02-05T10:03:12.015Z,102201.75
2023-02-05T10:06:01.969Z,102199.94
2023-02-05T10:08:41.210Z,102200.06
2023-02-05T10:11:19.275Z,102199.00
2023-02-05T10:13:53.296Z,102188.94
2023-02-05T10:17:06.728Z,102174.97
2023-02-05T10:19:59.228Z,102178.16
2023-02-05T10:22:43.717Z,102166.06
2023-02-05T10:25:47.542Z,102163.81
2023-02-05T10:28:38.403Z,102154.41
2023-02-05T10:31:39.402Z,102165.66
2023-02-05T10:34:18.429Z,102174.00
2023-02-05T10:36:52.074Z,102171.56
2023-02-05T10:39:24.951Z,102180.41
2023-02-05T10:42:10.191Z,102162.44
2023-02-05T10:44:44.561Z,102165.78
2023-02-05T10:47:24.084Z,102169.72
2023-02-05T10:50:02.298Z,102169.34
2023-02-05T10:52:28.981Z,102176.47
2023-02-05T10:54:55.935Z,102165.13
2023-02-05T10:57:23.956Z,102171.03
2023-02-05T11:00:02.218Z,102167.56
2023-02-05T11:02:37.939Z,102164.75
2023-02-05T11:05:14.965Z,102159.28
2023-02-05T11:07:45.536Z,102160.41
2023-02-05T11:10:24.692Z,102145.78
2023-02-05T11:12:55.071Z,102151.84
2023-02-05T11:15:25.367Z,102155.81
2023-02-05T11:17:54.932Z,102164.63
2023-02-05T11:20:30.732Z,102162.69
2023-02-05T11:23:21.239Z,102155.19
2023-02-05T11:25:56.508Z,102158.53
2023-02-05T11:28:28.364Z,102161.81
2023-02-05T11:30:56.022Z,102164.59
2023-02-05T11:33:22.871Z,102162.16
2023-02-05T11:35:55.894Z,102169.34
2023-02-05T11:38:44.427Z,102169.13
2023-02-05T11:41:25.939Z,102164.63
2023-02-05T11:43:54.007Z,102158.59
2023-02-05T11:46:26.233Z,102151.69
2023-02-05T11:49:00.214Z,102153.69
2023-02-05T11:51:32.628Z,102148.16
2023-02-05T11:54:02.504Z,102156.69
2023-02-05T11:56:29.035Z,102151.56
2023-02-05T11:59:02.945Z,102148.88
2023-02-05T12:01:36.198Z,102155.09
2023-02-05T12:04:04.459Z,102152.13
2023-02-05T12:06:38.468Z,102155.00
2023-02-05T12:09:05.664Z,102153.47
2023-02-05T12:12:04.339Z,102143.28
2023-02-05T12:14:56.133Z,102151.47
2023-02-05T12:17:31.902Z,102147.44
2023-02-05T12:20:12.217Z,102148.22
2023-02-05T12:23:17.493Z,102145.69
2023-02-05T12:26:02.587Z,102144.97
2023-02-05T12:28:42.650Z,102136.97
2023-02-05T12:31:41.214Z,102140.97
2023-02-05T12:34:24.796Z,102134.56
2023-02-05T12:37:12.051Z,102129.50
2023-02-05T12:39:57.780Z,102132.50
2023-02-05T12:42:43.069Z,102120.91
2023-02-05T12:45:50.997Z,102119.19
2023-02-05T12:48:34.764Z,102123.38
2023-02-05T12:51:09.614Z,102114.50
2023-02-05T12:53:48.087Z,102117.34
2023-02-05T12:56:49.565Z,102124.06
2023-02-05T12:59:24.801Z,102127.91
2023-02-05T13:01:56.709Z,102131.66
2023-02-05T13:04:35.227Z,102124.59
2023-02-05T13:07:12.077Z,102120.56
2023-02-05T13:09:51.458Z,102124.19
2023-02-05T13:12:23.345Z,102124.09
2023-02-05T13:15:04.802Z,102119.53
2023-02-05T13:17:38.330Z,102134.28
2023-02-05T13:20:15.277Z,102132.06
2023-02-05T13:23:15.288Z,102138.34
2023-02-05T13:26:08.094Z,102127.19
2023-02-05T13:28:42.422Z,102126.75
2023-02-05T13:31:21.570Z,102127.53
2023-02-05T13:33:48.630Z,102121.19
2023-02-05T13:36:24.003Z,102122.47
2023-02-05T13:39:33.743Z,102109.47
2023-02-05T13:42:33.312Z,102111.50
2023-02-05T13:45:18.653Z,102112.84
2023-02-05T13:48:00.487Z,102115.56
2023-02-05T13:51:00.847Z,102117.38
2023-02-05T13:53:30.451Z,102113.66
2023-02-05T13:56:24.641Z,102107.13
2023-02-05T13:59:04.730Z,102107.06
2023-02-05T14:01:40.869Z,102115.44
2023-02-05T14:04:08.916Z,102119.22
2023-02-05T14:06:38.280Z,102112.31
2023-02-05T14:09:10.040Z,102123.69
2023-02-05T14:11:53.191Z,102117.91
2023-02-05T14:14:35.316Z,102123.91
2023-02-05T14:17:23.308Z,102119.72
2023-02-05T14:19:57.075Z,102113.09
2023-02-05T14:22:58.155Z,102109.94
2023-02-05T14:25:38.186Z,102117.16
2023-02-05T14:28:17.210Z,102112.34
2023-02-05T14:30:57.499Z,102111.22
2023-02-05T14:33:47.342Z,102116.81
2023-02-05T14:36:17.227Z,102116.47
2023-02-05T14:38:55.500Z,102110.75
2023-02-05T14:41:41.969Z,102110.03
2023-02-05T14:44:30.612Z,102108.31
2023-02-05T14:47:01.932Z,102106.88
2023-02-05T14:49:34.304Z,102107.44
2023-02-05T14:52:03.712Z,102111.38
2023-02-05T14:54:36.392Z,102112.13
2023-02-05T14:57:18.278Z,102120.22
2023-02-05T14:59:56.750Z,102119.34
2023-02-05T15:03:00.884Z,102129.41
2023-02-05T15:05:41.964Z,102127.56
2023-02-05T15:08:16.406Z,102125.19
2023-02-05T15:10:54.677Z,102121.88
2023-02-05T15:13:22.401Z,102135.44
2023-02-05T15:16:09.662Z,102146.16
2023-02-05T15:18:41.476Z,102137.53
2023-02-05T15:21:16.299Z,102131.88
2023-02-05T15:23:46.646Z,102122.91
2023-02-05T15:26:33.883Z,102126.13
2023-02-05T15:29:11.102Z,102133.63
2023-02-05T15:31:47.142Z,102135.97
2023-02-05T15:34:22.913Z,102137.88
2023-02-05T15:37:15.108Z,102145.66
2023-02-05T15:40:03.443Z,102143.75
2023-02-05T15:42:40.275Z,102143.88
2023-02-05T15:45:45.080Z,102140.97
2023-02-05T15:48:12.060Z,102137.78
2023-02-05T15:50:54.901Z,102131.09
2023-02-05T15:53:31.546Z,102131.03
2023-02-05T15:55:58.342Z,102133.97
2023-02-05T15:58:26.471Z,102136.81
2023-02-05T16:00:53.714Z,102146.53
2023-02-05T16:03:26.144Z,102139.41
2023-02-05T16:05:53.226Z,102141.97
2023-02-05T16:08:22.493Z,102149.25
2023-02-05T16:10:57.728Z,102146.00
2023-02-05T16:13:28.438Z,102140.34
2023-02-05T16:16:19.116Z,102142.53
2023-02-05T16:19:01.282Z,102152.31
2023-02-05T16:21:38.338Z,102148.75
2023-02-05T16:24:15.181Z,102143.97
2023-02-05T16:26:48.827Z,102151.31
2023-02-05T16:29:47.694Z,102155.19
2023-02-05T16:32:30.406Z,102155.06
2023-02-05T16:34:58.426Z,102149.97
2023-02-05T16:37:30.661Z,102155.59
2023-02-05T16:39:59.935Z,102150.44
2023-02-05T16:42:33.329Z,102153.19
2023-02-05T16:48:24.908Z,102157.78
2023-02-05T16:50:52.769Z,102159.16
2023-02-05T16:53:26.820Z,102157.66
2023-02-05T16:56:01.932Z,102161.50
2023-02-05T16:58:43.915Z,102171.00
2023-02-05T17:01:10.805Z,102167.91
2023-02-05T17:03:41.690Z,102162.28
2023-02-05T17:06:14.427Z,102169.47
2023-02-05T17:08:42.613Z,102167.53
2023-02-05T17:11:32.236Z,102171.44
2023-02-05T17:14:35.824Z,102172.38
2023-02-05T17:17:19.752Z,102178.94
2023-02-05T17:20:17.522Z,102173.50
2023-02-05T17:23:07.438Z,102168.28
2023-02-05T17:25:41.404Z,102169.75
2023-02-05T17:28:15.118Z,102162.66
2023-02-05T17:30:43.960Z,102161.66
2023-02-05T17:33:18.164Z,102161.22
2023-02-05T17:35:44.817Z,102169.91
2023-02-05T17:38:11.539Z,102163.44
2023-02-05T17:40:38.424Z,102158.00
2023-02-05T17:43:05.119Z,102163.59
2023-02-05T17:45:36.246Z,102159.56
2023-02-05T17:48:03.188Z,102160.97
2023-02-05T17:50:29.746Z,102165.25
2023-02-05T17:52:56.270Z,102168.78
2023-02-05T17:55:23.518Z,102173.22
2023-02-05T17:57:50.099Z,102160.38
2023-02-05T18:00:23.118Z,102166.88
2023-02-05T18:02:50.162Z,102163.28
2023-02-05T18:05:18.999Z,102172.00
2023-02-05T18:07:49.936Z,102168.75
2023-02-05T18:10:21.909Z,102170.25
2023-02-05T18:12:51.096Z,102163.28
2023-02-05T18:15:18.011Z,102166.19
2023-02-05T18:17:44.573Z,102166.06
2023-02-05T18:20:12.509Z,102164.72
2023-02-05T18:22:39.536Z,102160.88
2023-02-05T18:25:06.751Z,102158.59
2023-02-05T18:27:34.056Z,102152.91
2023-02-05T18:30:00.796Z,102149.72
2023-02-05T18:32:27.982Z,102141.00
2023-02-05T18:34:54.661Z,102146.25
2023-02-05T18:37:21.405Z,102145.03
2023-02-05T18:39:48.488Z,102157.75
2023-02-05T18:42:15.098Z,102160.16
2023-02-05T18:44:41.830Z,102160.16
2023-02-05T18:47:08.536Z,102159.84
2023-02-05T18:49:35.842Z,102157.56
2023-02-05T18:52:02.712Z,102150.19
2023-02-05T18:57:01.810Z,102154.63
2023-02-05T18:59:28.312Z,102166.31
2023-02-05T19:01:55.101Z,102163.00
2023-02-05T19:04:22.007Z,102156.06
2023-02-05T19:06:52.630Z,102149.66
2023-02-05T19:09:21.890Z,102156.44
2023-02-05T19:11:49.133Z,102156.69
2023-02-05T19:14:18.490Z,102163.69
2023-02-05T19:16:47.065Z,102166.84
2023-02-05T19:19:20.163Z,102180.00
2023-02-05T19:21:48.885Z,102183.22
2023-02-05T19:24:17.361Z,102169.56
2023-02-05T19:26:44.585Z,102175.63
2023-02-05T19:29:16.950Z,102186.56
2023-02-05T19:31:45.297Z,102197.06
2023-02-05T19:34:12.320Z,102187.34
2023-02-05T19:36:39.487Z,102188.75
2023-02-05T19:39:08.628Z,102184.91
2023-02-05T19:41:37.062Z,102193.66
2023-02-05T19:44:07.411Z,102198.22
2023-02-05T19:46:44.280Z,102210.03
2023-02-05T19:49:18.953Z,102214.47
2023-02-05T19:51:51.574Z,102221.88
2023-02-05T19:54:21.352Z,102228.00
2023-02-05T19:56:48.425Z,102211.63
2023-02-05T19:59:16.974Z,102221.78
2023-02-05T20:01:45.061Z,102234.84
2023-02-05T20:04:17.111Z,102244.59
2023-02-05T20:06:46.522Z,102245.81
2023-02-05T20:09:14.989Z,102255.38
2023-02-05T20:11:44.274Z,102250.56
2023-02-05T20:14:11.330Z,102243.94
2023-02-05T20:16:40.419Z,102250.44
2023-02-05T20:19:09.646Z,102254.88
2023-02-05T20:21:36.173Z,102265.63
2023-02-05T20:24:04.836Z,102258.22
2023-02-05T20:26:31.700Z,102271.13
2023-02-05T20:29:16.839Z,102267.03
2023-02-05T20:31:47.318Z,102259.63
2023-02-05T20:34:20.644Z,102261.50
2023-02-05T20:36:50.108Z,102257.84
2023-02-05T20:39:18.752Z,102262.66
2023-02-05T20:41:46.704Z,102277.03
2023-02-05T20:44:13.459Z,102277.66
2023-02-05T20:46:40.304Z,102275.38
2023-02-05T20:49:09.028Z,102277.81
2023-02-05T20:51:36.495Z,102278.56
2023-02-05T20:54:03.849Z,102291.72
2023-02-05T20:56:31.448Z,102291.59
2023-02-05T20:59:00.399Z,102291.28
2023-02-05T21:01:28.659Z,102297.34
2023-02-05T21:04:01.198Z,102300.22
2023-02-05T21:06:31.108Z,102318.69
2023-02-05T21:08:58.004Z,102310.66
2023-02-05T21:11:25.988Z,102315.03
2023-02-05T21:13:53.002Z,102317.75
2023-02-05T21:16:23.027Z,102326.81
2023-02-05T21:18:51.475Z,102325.31
2023-02-05T21:21:23.887Z,102323.53
2023-02-05T21:23:55.714Z,102325.19
2023-02-05T21:26:25.566Z,102322.03
2023-02-05T21:28:55.121Z,102315.34
2023-02-05T21:31:22.528Z,102315.34
2023-02-05T21:33:49.216Z,102312.06
2023-02-05T21:36:17.910Z,102311.75
2023-02-05T21:38:44.746Z,102304.75
2023-02-05T21:41:13.746Z,102316.84
2023-02-05T21:43:40.903Z,102319.72
2023-02-05T21:46:10.350Z,102320.97
2023-02-05T21:48:37.136Z,102327.03
2023-02-05T21:51:09.668Z,102326.97
2023-02-05T21:53:36.708Z,102331.56
2023-02-05T21:56:06.185Z,102332.16
2023-02-05T21:58:37.075Z,102341.38
2023-02-05T22:01:18.380Z,102352.88
2023-02-05T22:03:50.849Z,102347.88
2023-02-05T22:06:18.527Z,102325.81
2023-02-05T22:08:48.155Z,102339.44
2023-02-05T22:11:15.243Z,102338.84
2023-02-05T22:13:44.021Z,102339.28
2023-02-05T22:16:16.260Z,102333.06
2023-02-05T22:18:43.306Z,102344.91
2023-02-05T22:21:12.926Z,102351.66
2023-02-05T22:26:12.548Z,102355.28
2023-02-05T22:28:39.188Z,102356.31
2023-02-05T22:31:08.065Z,102365.06
2023-02-05T22:33:35.986Z,102377.47
2023-02-05T22:36:03.375Z,102378.22
2023-02-05T22:38:35.862Z,102372.47
2023-02-05T22:41:07.680Z,102373.03
2023-02-05T22:43:34.265Z,102374.84
2023-02-05T22:46:12.776Z,102379.09
2023-02-05T22:48:41.612Z,102377.59
2023-02-05T22:51:10.681Z,102368.97
2023-02-05T22:53:37.922Z,102363.72
2023-02-05T22:56:07.649Z,102363.84
2023-02-05T22:58:35.171Z,102361.84
2023-02-05T23:01:29.326Z,102376.34
2023-02-05T23:03:57.117Z,102382.22
2023-02-05T23:06:27.435Z,102376.88
2023-02-05T23:08:59.624Z,102361.44
2023-02-05T23:11:27.842Z,102363.50
2023-02-05T23:13:55.716Z,102370.22
2023-02-05T23:16:27.403Z,102364.69
2023-02-05T23:18:57.110Z,102368.69
2023-02-05T23:21:25.684Z,102375.03
2023-02-05T23:23:52.201Z,102362.44
2023-02-05T23:26:27.246Z,102354.94
2023-02-05T23:28:55.068Z,102351.03
2023-02-05T23:31:24.561Z,102352.41
2023-02-05T23:33:52.528Z,102341.84
2023-02-05T23:36:19.121Z,102339.38
2023-02-05T23:38:45.996Z,102339.03
2023-02-05T23:41:13.129Z,102330.59
2023-02-05T23:43:40.266Z,102334.13
2023-02-05T23:46:07.783Z,102330.81
2023-02-05T23:48:34.333Z,102319.03
2023-02-05T23:51:00.911Z,102322.38
2023-02-05T23:53:27.480Z,102335.66
2023-02-05T23:55:55.008Z,102334.59
2023-02-05T23:58:25.929Z,102324.81
